Time;durP1;ratioP1;P1;durP2;ratioP2;P2;SDS_P1;SDS_P2;PMS_P1;PMS_P2;Temp;Humidity;BMP_temperature;BMP_pressure;BME280_temperature;BME280_humidity;BME280_pressure;Samples;Min_cycle;Max_cycle;Signal;HPM_P1;HPM_P2
2024/03/24 00:00:14;;;;;;;12.73;7.47;;;;;;;11.86;100.00;100379.28;2089995;28;20182;-70
2024/03/24 00:01:14;;;;;;;18.57;8.43;;;;;;;12.30;100.00;100444.09;2089782;28;20268;-70
2024/03/24 00:02:16;;;;;;;15.53;8.43;;;;;;;11.97;100.00;100388.03;2089897;28;20426;-70
2024/03/24 00:03:16;;;;;;;19.10;9.50;;;;;;;12.32;100.00;100445.19;2089932;28;20185;-70
2024/03/24 00:04:17;;;;;;;11.60;7.57;;;;;;;12.15;100.00;100412.44;2089829;28;20940;-70
2024/03/24 00:05:17;;;;;;;13.13;8.07;;;;;;;12.34;100.00;100444.75;2089742;28;20174;-70
2024/03/24 00:06:18;;;;;;;15.23;8.60;;;;;;;12.28;100.00;100438.19;2090016;28;20231;-70
2024/03/24 00:07:19;;;;;;;13.80;7.70;;;;;;;12.05;100.00;100408.03;2089759;28;20205;-70
2024/03/24 00:08:19;;;;;;;18.70;8.30;;;;;;;11.87;100.00;100378.06;2089783;28;20424;-70
2024/03/24 00:09:20;;;;;;;14.10;8.77;;;;;;;12.31;100.00;100437.31;2089722;28;20572;-71
2024/03/24 00:10:20;;;;;;;13.83;8.40;;;;;;;11.82;100.00;100384.19;2089889;28;20186;-70
2024/03/24 00:11:21;;;;;;;12.00;7.63;;;;;;;12.17;100.00;100415.53;2089102;28;20209;-70
2024/03/24 00:12:21;;;;;;;14.10;8.23;;;;;;;12.32;100.00;100431.31;2089417;28;20182;-70
2024/03/24 00:13:22;;;;;;;12.10;7.77;;;;;;;12.33;100.00;100426.50;2089778;28;20255;-70
2024/03/24 00:14:22;;;;;;;15.53;8.43;;;;;;;11.25;100.00;100258.78;2089777;28;20248;-70
2024/03/24 00:15:23;;;;;;;12.67;8.57;;;;;;;12.18;100.00;100397.66;2089768;28;20594;-71
2024/03/24 00:16:23;;;;;;;16.67;8.03;;;;;;;12.34;100.00;100426.06;2089698;28;20663;-70
2024/03/24 00:17:24;;;;;;;14.47;8.50;;;;;;;12.33;100.00;100423.72;2089765;28;20263;-70
2024/03/24 00:18:24;;;;;;;13.30;7.47;;;;;;;11.30;100.00;100272.88;2089671;28;20248;-70
2024/03/24 00:19:25;;;;;;;13.97;8.27;;;;;;;12.01;100.00;100368.47;2089750;28;20188;-70
2024/03/24 00:20:26;;;;;;;12.87;7.70;;;;;;;11.67;100.00;100310.91;2089887;28;20242;-70
2024/03/24 00:21:26;;;;;;;11.33;6.50;;;;;;;12.36;100.00;100412.50;2089858;28;20182;-70
2024/03/24 00:22:27;;;;;;;12.70;8.03;;;;;;;11.87;100.00;100333.63;2088996;28;20186;-70
2024/03/24 00:23:27;;;;;;;16.10;8.20;;;;;;;12.40;100.00;100417.94;2089133;28;20187;-70
2024/03/24 00:24:28;;;;;;;15.60;7.73;;;;;;;12.32;100.00;100414.63;2089740;28;20240;-70
2024/03/24 00:25:28;;;;;;;12.87;7.67;;;;;;;12.39;100.00;100411.59;2089063;28;20210;-70
2024/03/24 00:26:29;;;;;;;12.27;7.53;;;;;;;11.95;100.00;100350.84;2080729;28;20244;-70
2024/03/24 00:27:30;;;;;;;17.43;9.00;;;;;;;11.92;100.00;100333.06;2089094;28;20204;-70
2024/03/24 00:28:30;;;;;;;12.77;7.83;;;;;;;12.44;100.00;100413.03;2089698;28;20174;-70
2024/03/24 00:29:31;;;;;;;12.30;6.90;;;;;;;11.85;100.00;100338.09;2089734;28;20183;-70
2024/03/24 00:30:33;;;;;;;17.37;8.40;;;;;;;11.88;100.00;100310.19;2089958;28;20648;-70
2024/03/24 00:31:34;;;;;;;14.30;8.00;;;;;;;12.50;100.00;100402.91;2089596;28;20444;-70
2024/03/24 00:32:34;;;;;;;10.43;5.90;;;;;;;12.26;100.00;100374.75;2089014;28;20422;-70
2024/03/24 00:33:35;;;;;;;16.93;8.00;;;;;;;12.39;100.00;100389.38;2088923;28;20465;-70
2024/03/24 00:34:35;;;;;;;12.30;6.50;;;;;;;12.46;100.00;100393.91;2089676;28;20189;-70
2024/03/24 00:35:36;;;;;;;14.77;8.13;;;;;;;12.62;100.00;100410.41;2089593;28;20209;-70
2024/03/24 00:36:37;;;;;;;15.23;8.57;;;;;;;12.67;100.00;100410.63;2089613;28;20233;-70
2024/03/24 00:37:39;;;;;;;16.97;9.70;;;;;;;12.38;100.00;100364.81;2089525;28;20914;-70
2024/03/24 00:38:40;;;;;;;19.70;10.20;;;;;;;12.14;100.00;100327.56;2089673;28;20843;-70
2024/03/24 00:39:41;;;;;;;18.43;9.20;;;;;;;12.34;100.00;100341.94;2089650;28;20190;-70
2024/03/24 00:40:41;;;;;;;16.13;9.10;;;;;;;12.12;100.00;100310.56;2089608;28;20451;-70
2024/03/24 00:41:42;;;;;;;14.93;8.33;;;;;;;12.28;100.00;100336.19;2089762;28;20188;-70
2024/03/24 00:42:42;;;;;;;14.70;9.20;;;;;;;12.61;100.00;100375.50;2089624;28;20233;-70
2024/03/24 00:43:43;;;;;;;9.53;5.67;;;;;;;12.50;100.00;100361.22;2089802;28;20175;-70
2024/03/24 00:44:43;;;;;;;8.43;4.20;;;;;;;12.53;100.00;100366.66;2089613;28;20180;-70
2024/03/24 00:45:44;;;;;;;14.50;7.20;;;;;;;11.90;100.00;100271.66;2089672;28;20172;-70
2024/03/24 00:46:45;;;;;;;18.50;9.50;;;;;;;12.90;100.00;100401.03;2089616;28;20209;-70
2024/03/24 00:47:45;;;;;;;17.83;8.03;;;;;;;12.34;100.00;100309.38;2089626;28;20426;-70
2024/03/24 00:48:46;;;;;;;13.87;8.17;;;;;;;12.83;100.00;100377.06;2089632;28;20184;-70
2024/03/24 00:49:47;;;;;;;15.53;7.80;;;;;;;13.02;100.00;100400.22;2089795;28;20236;-70
2024/03/24 00:50:47;;;;;;;10.60;6.10;;;;;;;12.88;100.00;100376.47;2089640;28;20989;-70
2024/03/24 00:51:51;;;;;;;12.10;5.73;;;;;;;12.88;100.00;100373.69;2089638;28;20186;-70
2024/03/24 00:52:52;;;;;;;12.77;6.93;;;;;;;12.20;100.00;100289.66;2089587;28;20196;-70
2024/03/24 00:53:52;;;;;;;13.70;7.20;;;;;;;13.07;100.00;100405.22;2089625;28;20436;-70
2024/03/24 00:54:53;;;;;;;14.60;8.03;;;;;;;12.82;100.00;100350.47;2089572;28;20189;-70
2024/03/24 00:55:54;;;;;;;9.53;5.87;;;;;;;13.15;100.00;100395.34;2089839;28;20190;-70
2024/03/24 00:56:54;;;;;;;9.20;6.00;;;;;;;12.47;100.00;100298.19;2089482;28;20263;-70
2024/03/24 00:57:55;;;;;;;12.97;7.30;;;;;;;13.23;100.00;100402.22;2089586;28;20418;-70
2024/03/24 00:58:55;;;;;;;12.00;7.00;;;;;;;12.10;100.00;100226.94;2090083;28;20180;-70
2024/03/24 00:59:56;;;;;;;13.73;7.80;;;;;;;13.08;100.00;100371.38;2091074;28;20222;-70
2024/03/24 01:00:57;;;;;;;15.17;7.67;;;;;;;13.07;100.00;100361.47;2091278;28;20179;-70
2024/03/24 01:01:57;;;;;;;9.40;5.60;;;;;;;12.83;100.00;100318.66;2091205;28;20179;-71
2024/03/24 01:02:58;;;;;;;13.17;6.63;;;;;;;12.93;100.00;100336.97;2091081;28;20178;-70
2024/03/24 01:03:59;;;;;;;14.37;8.60;;;;;;;13.46;100.00;100404.47;2091294;28;20175;-70
2024/03/24 01:05:01;;;;;;;14.43;7.97;;;;;;;12.78;100.00;100299.00;2091139;28;20250;-70
2024/03/24 01:06:01;;;;;;;13.93;7.47;;;;;;;12.97;100.00;100320.16;2091273;28;20458;-70
2024/03/24 01:07:02;;;;;;;16.60;6.57;;;;;;;13.60;100.00;100412.28;2091196;28;20920;-70
2024/03/24 01:08:03;;;;;;;15.73;7.60;;;;;;;13.56;100.00;100414.44;2091291;28;20622;-70
2024/03/24 01:09:04;;;;;;;8.37;4.83;;;;;;;13.17;100.00;100368.63;2091073;28;20430;-70
2024/03/24 01:10:05;;;;;;;5.57;3.50;;;;;;;12.53;100.00;100268.56;2091103;28;20537;-71
2024/03/24 01:11:06;;;;;;;10.30;5.17;;;;;;;13.59;100.00;100433.81;2091114;28;20197;-70
2024/03/24 01:12:07;;;;;;;11.57;5.37;;;;;;;13.64;100.00;100415.72;2091070;28;20229;-70
2024/03/24 01:13:07;;;;;;;7.93;4.37;;;;;;;13.70;100.00;100419.44;2091126;28;20433;-70
2024/03/24 01:14:08;;;;;;;8.50;4.00;;;;;;;13.75;99.06;100410.50;2090329;28;20187;-70
2024/03/24 01:15:12;;;;;;;5.87;3.53;;;;;;;13.77;98.36;100414.38;2090455;28;20179;-70
2024/03/24 01:16:14;;;;;;;6.30;3.73;;;;;;;13.78;97.17;100415.16;2091224;28;20267;-70
2024/03/24 01:17:14;;;;;;;5.20;3.07;;;;;;;13.93;94.78;100422.47;2090976;28;20465;-70
2024/03/24 01:18:15;;;;;;;4.57;3.13;;;;;;;13.95;95.07;100419.22;2091007;28;20417;-70
2024/03/24 01:19:15;;;;;;;4.97;3.47;;;;;;;13.81;96.15;100386.38;2090300;28;20626;-70
2024/03/24 01:20:16;;;;;;;3.97;2.90;;;;;;;12.94;94.95;100243.16;2090476;28;20692;-70
2024/03/24 01:21:16;;;;;;;4.17;2.90;;;;;;;14.11;92.79;100414.16;2090983;28;20645;-70
2024/03/24 01:22:17;;;;;;;7.50;4.13;;;;;;;14.17;95.54;100409.53;2090995;28;20671;-70
2024/03/24 01:23:17;;;;;;;7.63;3.67;;;;;;;13.99;94.85;100378.06;2090905;28;20552;-70
2024/03/24 01:24:18;;;;;;;10.47;4.30;;;;;;;14.12;97.06;100390.63;2090977;28;20183;-70
2024/03/24 01:25:18;;;;;;;9.77;4.37;;;;;;;13.97;96.44;100377.75;2091048;28;20190;-70
2024/03/24 01:26:19;;;;;;;7.70;3.73;;;;;;;14.04;95.60;100369.88;2091055;28;20565;-70
2024/03/24 01:27:19;;;;;;;4.40;2.97;;;;;;;14.32;93.23;100409.72;2090883;28;20179;-70
2024/03/24 01:28:20;;;;;;;7.00;3.63;;;;;;;14.35;94.92;100417.94;2090935;28;20637;-70
2024/03/24 01:29:20;;;;;;;4.93;3.20;;;;;;;14.40;92.21;100408.97;2091149;28;20662;-70
2024/03/24 01:30:21;;;;;;;5.37;2.80;;;;;;;14.53;88.96;100400.44;2091056;28;20207;-70
2024/03/24 01:31:21;;;;;;;5.47;3.27;;;;;;;14.43;88.47;100382.97;2090865;28;20276;-70
2024/03/24 01:32:22;;;;;;;7.17;3.23;;;;;;;14.48;87.94;100387.13;2090971;28;20176;-71
2024/03/24 01:33:22;;;;;;;4.43;2.60;;;;;;;14.63;87.00;100407.59;2090805;28;20613;-70
2024/03/24 01:34:24;;;;;;;5.40;2.80;;;;;;;14.29;86.46;100347.31;2090843;28;20705;-70
2024/03/24 01:35:24;;;;;;;5.47;2.90;;;;;;;14.39;88.24;100370.41;2090990;28;20189;-70
2024/03/24 01:36:25;;;;;;;7.40;2.93;;;;;;;14.53;90.31;100378.94;2090858;28;20426;-70
2024/03/24 01:37:25;;;;;;;4.73;2.80;;;;;;;14.62;90.12;100387.31;2090824;28;20568;-70
2024/03/24 01:38:26;;;;;;;3.77;2.70;;;;;;;14.81;87.58;100393.66;2091086;28;20641;-70
2024/03/24 01:39:26;;;;;;;6.80;3.27;;;;;;;14.83;86.98;100396.72;2090864;28;20712;-70
2024/03/24 01:40:27;;;;;;;5.27;2.80;;;;;;;14.88;83.60;100394.09;2090723;28;20719;-70
2024/03/24 01:41:28;;;;;;;4.83;2.87;;;;;;;14.88;83.08;100391.31;2090924;28;20570;-70
2024/03/24 01:42:28;;;;;;;3.57;2.47;;;;;;;14.81;82.91;100394.41;2090824;28;20617;-70
2024/03/24 01:43:29;;;;;;;6.43;2.47;;;;;;;14.60;82.34;100339.56;2090813;28;20704;-70
2024/03/24 01:44:30;;;;;;;3.93;2.40;;;;;;;14.97;82.36;100388.47;2090795;28;20211;-70
2024/03/24 01:45:31;;;;;;;3.73;2.30;;;;;;;14.39;81.19;100289.59;2090759;28;20715;-70
2024/03/24 01:46:31;;;;;;;4.60;2.80;;;;;;;14.88;80.74;100357.84;2090740;28;20854;-70
2024/03/24 01:47:34;;;;;;;4.97;2.87;;;;;;;15.07;81.32;100378.09;2090765;28;20241;-70
2024/03/24 01:48:35;;;;;;;3.90;2.13;;;;;;;15.01;79.85;100377.19;2090858;28;20176;-70
2024/03/24 01:49:36;;;;;;;3.57;2.60;;;;;;;14.91;78.99;100358.91;2090708;28;20419;-70
2024/03/24 01:50:38;;;;;;;4.53;2.17;;;;;;;15.09;79.35;100376.38;2090869;28;20184;-70
2024/03/24 01:51:38;;;;;;;4.73;2.60;;;;;;;15.13;78.76;100385.38;2090719;28;20498;-70
2024/03/24 01:52:40;;;;;;;4.90;2.77;;;;;;;14.42;78.77;100261.53;2090830;28;20421;-70
2024/03/24 01:53:41;;;;;;;4.20;2.40;;;;;;;14.79;78.31;100307.63;2094168;28;20558;-70
2024/03/24 01:54:42;;;;;;;3.63;2.23;;;;;;;14.57;77.57;100268.03;2099003;28;20801;-70
2024/03/24 01:55:42;;;;;;;3.83;2.60;;;;;;;15.31;76.95;100381.75;2099094;28;20414;-70
2024/03/24 01:56:44;;;;;;;4.60;2.33;;;;;;;14.90;76.90;100313.50;2098917;28;20207;-70
2024/03/24 01:57:45;;;;;;;5.53;3.17;;;;;;;15.09;80.41;100340.09;2099047;28;20259;-70
2024/03/24 01:58:45;;;;;;;5.90;2.93;;;;;;;15.38;80.68;100373.06;2098978;28;20426;-70
2024/03/24 01:59:48;;;;;;;4.23;2.70;;;;;;;15.43;82.12;100372.44;2098987;28;20201;-70
2024/03/24 02:00:49;;;;;;;7.07;2.73;;;;;;;15.42;82.39;100370.91;2099112;28;20168;-70
2024/03/24 02:01:50;;;;;;;5.77;3.60;;;;;;;14.95;84.43;100293.31;2098237;28;20503;-70
2024/03/24 02:02:50;;;;;;;6.67;3.77;;;;;;;15.41;87.97;100358.16;2098305;28;20247;-70
2024/03/24 02:03:51;;;;;;;7.37;4.37;;;;;;;15.35;90.13;100366.41;2098928;28;20180;-70
2024/03/24 02:04:51;;;;;;;7.87;4.33;;;;;;;15.18;92.95;100337.28;2098944;28;20190;-70
2024/03/24 02:05:51;;;;;;;6.13;3.47;;;;;;;15.35;93.48;100360.03;2098935;28;20568;-70
2024/03/24 02:06:52;;;;;;;5.90;3.20;;;;;;;15.06;86.61;100317.94;2098974;28;20554;-70
2024/03/24 02:07:53;;;;;;;7.47;4.30;;;;;;;15.30;86.73;100357.84;2098895;28;20656;-70
2024/03/24 02:08:53;;;;;;;5.97;4.00;;;;;;;15.28;90.39;100368.72;2098926;28;20177;-70
2024/03/24 02:09:54;;;;;;;4.20;2.70;;;;;;;15.22;84.53;100362.25;2098877;28;20179;-70
2024/03/24 02:10:58;;;;;;;6.33;3.83;;;;;;;15.23;86.00;100356.19;2098148;28;20233;-70
2024/03/24 02:11:59;;;;;;;6.20;3.70;;;;;;;14.87;87.17;100302.50;2098972;28;20183;-70
2024/03/24 02:13:00;;;;;;;5.67;3.17;;;;;;;15.05;84.65;100321.97;2097952;28;20425;-69
2024/03/24 02:14:02;;;;;;;3.97;2.70;;;;;;;14.70;83.11;100270.63;2098276;28;20633;-70
2024/03/24 02:15:03;;;;;;;5.47;2.80;;;;;;;14.91;82.79;100311.47;2098865;28;20183;-70
2024/03/24 02:16:05;;;;;;;3.90;2.50;;;;;;;14.77;80.32;100281.44;2098025;28;20465;-70
2024/03/24 02:17:05;;;;;;;5.30;2.73;;;;;;;15.08;79.54;100327.41;2097131;28;20577;-71
2024/03/24 02:18:06;;;;;;;4.30;2.37;;;;;;;14.96;79.18;100319.97;2090455;28;20468;-70
2024/03/24 02:19:06;;;;;;;4.27;2.70;;;;;;;15.11;80.81;100345.22;2090485;28;20628;-70
2024/03/24 02:20:09;;;;;;;3.50;2.27;;;;;;;15.11;79.08;100348.00;2090576;28;20176;-70
2024/03/24 02:21:09;;;;;;;4.20;2.60;;;;;;;15.03;79.19;100353.16;2090509;28;20177;-70
2024/03/24 02:22:09;;;;;;;5.93;2.80;;;;;;;14.94;79.29;100339.22;2090698;28;20509;-70
2024/03/24 02:23:10;;;;;;;3.83;2.10;;;;;;;15.03;79.02;100349.56;2090462;28;20185;-70
2024/03/24 02:24:11;;;;;;;4.60;2.43;;;;;;;15.02;78.55;100346.00;2090438;28;20183;-70
2024/03/24 02:25:11;;;;;;;4.70;2.60;;;;;;;14.13;77.84;100216.63;2090417;28;20173;-70
2024/03/24 02:26:12;;;;;;;4.87;2.13;;;;;;;14.77;77.27;100310.13;2090461;28;20615;-70
2024/03/24 02:27:12;;;;;;;3.43;2.03;;;;;;;15.05;76.57;100355.44;2089736;28;20315;-70
2024/03/24 02:28:13;;;;;;;4.60;2.20;;;;;;;14.36;76.15;100240.31;2089830;28;20188;-70
2024/03/24 02:29:13;;;;;;;3.77;2.27;;;;;;;15.04;75.98;100351.91;2090374;28;20181;-70
2024/03/24 02:30:14;;;;;;;4.67;2.23;;;;;;;15.04;76.28;100348.31;2090446;28;20185;-70
2024/03/24 02:31:15;;;;;;;3.73;2.40;;;;;;;14.51;75.87;100272.66;2090401;28;20560;-70
2024/03/24 02:32:16;;;;;;;5.57;2.60;;;;;;;14.89;74.95;100323.09;2090310;28;20208;-70
2024/03/24 02:33:16;;;;;;;3.70;2.40;;;;;;;15.01;75.62;100350.03;2090183;28;20473;-70
2024/03/24 02:34:17;;;;;;;3.30;1.90;;;;;;;15.01;75.20;100355.63;2090366;28;20333;-70
2024/03/24 02:35:17;;;;;;;2.77;1.90;;;;;;;14.94;74.75;100335.63;2089688;28;20192;-71
2024/03/24 02:36:18;;;;;;;3.10;2.20;;;;;;;15.03;74.65;100346.78;2090056;28;20188;-70
2024/03/24 02:37:19;;;;;;;2.97;2.27;;;;;;;15.04;74.65;100348.31;2086759;28;20220;-70
2024/03/24 02:38:19;;;;;;;5.93;2.07;;;;;;;15.02;74.39;100354.38;2090282;28;20251;-70
2024/03/24 02:39:20;;;;;;;3.37;2.20;;;;;;;15.08;74.11;100354.53;2089628;28;20225;-70
2024/03/24 02:40:21;;;;;;;5.67;2.53;;;;;;;14.73;74.06;100303.94;2089646;28;20172;-70
2024/03/24 02:41:24;;;;;;;4.20;2.27;;;;;;;14.02;73.54;100201.63;2090274;28;20184;-70
2024/03/24 02:42:24;;;;;;;2.97;2.10;;;;;;;15.05;73.58;100353.44;2090277;28;20184;-70
2024/03/24 02:43:25;;;;;;;3.30;2.20;;;;;;;14.45;73.53;100260.59;2090315;28;20419;-70
2024/03/24 02:44:27;;;;;;;5.40;2.33;;;;;;;14.98;73.15;100330.69;2090354;28;20271;-70
2024/03/24 02:45:27;;;;;;;3.80;2.47;;;;;;;14.69;73.41;100302.53;2097845;28;20196;-70
2024/03/24 02:46:28;;;;;;;4.37;2.43;;;;;;;15.12;72.70;100346.75;2097894;28;20428;-70
2024/03/24 02:47:28;;;;;;;6.63;2.17;;;;;;;15.10;72.67;100346.44;2087721;28;20270;-69
2024/03/24 02:48:29;;;;;;;4.07;2.27;;;;;;;14.07;72.71;100206.56;2082067;28;20192;-70
2024/03/24 02:49:30;;;;;;;4.60;2.30;;;;;;;14.63;72.62;100282.09;2082092;28;20173;-71
2024/03/24 02:50:31;;;;;;;2.63;2.00;;;;;;;14.82;72.57;100319.88;2090247;28;20172;-70
2024/03/24 02:51:31;;;;;;;2.90;2.17;;;;;;;14.37;72.77;100250.22;2096477;28;20441;-71
2024/03/24 02:52:32;;;;;;;4.27;2.47;;;;;;;14.93;72.51;100346.03;2098528;28;20171;-71
2024/03/24 02:53:33;;;;;;;3.63;2.30;;;;;;;15.07;73.06;100361.34;2098615;28;20175;-70
2024/03/24 02:54:33;;;;;;;3.97;2.20;;;;;;;15.01;72.74;100358.41;2098439;28;20457;-71
2024/03/24 02:55:34;;;;;;;3.07;2.00;;;;;;;14.34;72.81;100277.03;2094701;28;20200;-70
2024/03/24 02:56:34;;;;;;;6.33;2.47;;;;;;;15.01;72.56;100363.22;2089575;28;20180;-71
2024/03/24 02:57:35;;;;;;;4.50;2.10;;;;;;;14.98;73.06;100359.38;2082034;28;20223;-71
2024/03/24 02:58:35;;;;;;;4.23;2.30;;;;;;;15.00;73.17;100364.44;2082043;28;20185;-70
2024/03/24 02:59:36;;;;;;;5.90;2.27;;;;;;;14.18;72.74;100231.94;2081944;28;20185;-70
2024/03/24 03:00:36;;;;;;;5.03;2.40;;;;;;;15.03;72.86;100357.94;2081945;28;20177;-71
2024/03/24 03:01:37;;;;;;;3.63;2.10;;;;;;;14.59;72.43;100295.41;2087407;28;20180;-70
2024/03/24 03:02:37;;;;;;;3.37;2.10;;;;;;;15.00;72.15;100362.44;2090133;28;20180;-71
2024/03/24 03:03:43;;;;;;;3.53;2.10;;;;;;;14.85;72.52;100335.69;2090094;28;20661;-70
2024/03/24 03:04:43;;;;;;;4.67;2.27;;;;;;;14.94;72.75;100358.75;2090310;28;20681;-70
2024/03/24 03:05:45;;;;;;;2.70;2.00;;;;;;;14.99;72.61;100385.22;2090192;28;20904;-71
2024/03/24 03:06:46;;;;;;;2.77;1.83;;;;;;;14.58;72.25;100299.44;2090112;28;20195;-71
2024/03/24 03:07:46;;;;;;;3.27;2.07;;;;;;;15.00;72.69;100367.25;2090058;28;20426;-70
2024/03/24 03:08:47;;;;;;;3.97;2.30;;;;;;;14.40;72.25;100280.72;2089956;28;20261;-70
2024/03/24 03:09:47;;;;;;;3.50;2.10;;;;;;;14.92;72.77;100366.81;2089944;28;20184;-71
2024/03/24 03:10:48;;;;;;;3.47;2.40;;;;;;;14.92;72.85;100374.41;2090011;28;20180;-70
2024/03/24 03:11:48;;;;;;;3.80;2.40;;;;;;;14.89;73.25;100366.97;2090162;28;20208;-70
2024/03/24 03:12:48;;;;;;;4.23;2.47;;;;;;;14.42;73.31;100303.34;2090069;28;20188;-71
2024/03/24 03:13:49;;;;;;;4.47;2.50;;;;;;;14.88;73.82;100371.00;2090219;28;20640;-70
2024/03/24 03:14:49;;;;;;;3.97;2.67;;;;;;;14.67;73.52;100325.31;2090116;28;20646;-70
2024/03/24 03:15:50;;;;;;;4.23;2.63;;;;;;;14.46;73.57;100294.81;2090036;28;20234;-70
2024/03/24 03:16:51;;;;;;;3.97;2.37;;;;;;;14.69;73.23;100333.19;2089930;28;20756;-70
2024/03/24 03:17:51;;;;;;;6.40;2.30;;;;;;;14.34;73.67;100279.81;2090044;28;20180;-71
2024/03/24 03:18:52;;;;;;;3.40;2.20;;;;;;;14.79;73.84;100348.69;2090229;28;20169;-70
2024/03/24 03:19:52;;;;;;;3.47;2.23;;;;;;;14.83;73.50;100352.88;2090158;28;20238;-70
2024/03/24 03:20:53;;;;;;;4.67;2.13;;;;;;;14.37;73.85;100315.13;2089999;28;20179;-70
2024/03/24 03:21:53;;;;;;;4.23;2.30;;;;;;;14.71;74.12;100351.03;2090220;28;20180;-70
2024/03/24 03:22:54;;;;;;;4.27;2.30;;;;;;;14.65;74.20;100366.06;2090030;28;20263;-70
2024/03/24 03:23:54;;;;;;;5.47;2.57;;;;;;;14.11;75.00;100283.22;2090109;28;20164;-70
2024/03/24 03:24:55;;;;;;;3.80;2.17;;;;;;;14.65;75.42;100382.81;2090015;28;20187;-70
2024/03/24 03:25:55;;;;;;;2.90;1.97;;;;;;;13.83;75.25;100250.22;2090009;28;20207;-71
2024/03/24 03:26:56;;;;;;;3.60;2.27;;;;;;;14.04;75.71;100311.34;2090033;28;20172;-71
2024/03/24 03:27:56;;;;;;;3.27;1.97;;;;;;;13.96;75.95;100287.84;2089979;28;20613;-70
2024/03/24 03:28:57;;;;;;;3.20;2.23;;;;;;;14.36;75.99;100372.13;2090063;28;20235;-70
2024/03/24 03:29:58;;;;;;;6.03;2.37;;;;;;;14.51;76.42;100386.97;2089999;28;20179;-70
2024/03/24 03:30:58;;;;;;;4.40;2.27;;;;;;;14.48;76.39;100393.50;2090095;28;20680;-71
2024/03/24 03:31:58;;;;;;;4.80;2.30;;;;;;;14.49;76.51;100385.91;2089978;28;20176;-71
2024/03/24 03:32:59;;;;;;;4.00;2.40;;;;;;;14.26;76.64;100353.06;2089778;28;20184;-70
2024/03/24 03:33:59;;;;;;;3.93;2.50;;;;;;;14.44;77.03;100389.31;2090083;28;20168;-70
2024/03/24 03:35:00;;;;;;;3.37;2.03;;;;;;;14.17;77.12;100344.66;2089936;28;20668;-70
2024/03/24 03:36:01;;;;;;;3.50;2.30;;;;;;;14.44;78.02;100389.31;2090073;28;20190;-70
2024/03/24 03:37:01;;;;;;;5.27;2.23;;;;;;;13.79;78.44;100286.56;2089905;28;20637;-70
2024/03/24 03:38:02;;;;;;;4.30;2.57;;;;;;;14.08;78.48;100342.63;2089893;28;20217;-70
2024/03/24 03:39:04;;;;;;;3.80;2.63;;;;;;;13.99;79.62;100317.53;2091945;28;20229;-70
2024/03/24 03:40:06;;;;;;;5.70;2.60;;;;;;;14.40;80.35;100386.66;2098442;28;20199;-71
2024/03/24 03:41:06;;;;;;;5.97;2.23;;;;;;;13.95;83.24;100333.66;2098229;28;20499;-70
2024/03/24 03:42:07;;;;;;;5.17;2.50;;;;;;;13.81;83.25;100303.59;2098365;28;20580;-70
2024/03/24 03:43:08;;;;;;;3.03;2.17;;;;;;;13.99;82.56;100336.28;2098169;28;20198;-71
2024/03/24 03:44:08;;;;;;;5.73;2.67;;;;;;;14.34;84.32;100396.88;2098186;28;20187;-70
2024/03/24 03:45:10;;;;;;;3.70;2.30;;;;;;;14.28;83.27;100398.75;2098142;28;20197;-70
2024/03/24 03:46:11;;;;;;;4.40;2.17;;;;;;;14.13;82.12;100394.97;2098303;28;20190;-70
2024/03/24 03:47:15;;;;;;;5.13;2.57;;;;;;;14.05;83.79;100406.88;2097446;28;20453;-70
2024/03/24 03:48:16;;;;;;;5.27;2.67;;;;;;;14.15;84.79;100416.81;2097612;28;20262;-70
2024/03/24 03:49:16;;;;;;;4.47;2.30;;;;;;;14.07;84.42;100427.47;2098230;28;20425;-70
2024/03/24 03:50:17;;;;;;;3.93;2.60;;;;;;;13.92;84.48;100401.41;2098366;28;20176;-70
2024/03/24 03:51:19;;;;;;;3.10;2.30;;;;;;;13.76;84.19;100378.63;2098042;28;20176;-70
2024/03/24 03:52:29;;;;;;;5.00;2.60;;;;;;;13.75;83.96;100379.84;2097459;28;20179;-70
2024/03/24 03:53:36;;;;;;;4.77;2.30;;;;;;;14.05;84.74;100424.38;2097889;28;20497;-70
2024/03/24 03:54:37;;;;;;;4.33;2.50;;;;;;;13.43;85.50;100346.97;2098387;28;20401;-70
2024/03/24 03:55:40;;;;;;;6.33;2.60;;;;;;;13.97;87.12;100431.47;2098071;28;20470;-70
2024/03/24 03:56:41;;;;;;;4.23;2.30;;;;;;;13.94;87.43;100420.47;2098257;28;20175;-70
2024/03/24 03:57:42;;;;;;;4.03;2.23;;;;;;;13.07;85.69;100297.47;2098049;28;20404;-70
2024/03/24 03:58:42;;;;;;;3.17;2.47;;;;;;;13.92;86.19;100425.72;2098114;28;20263;-70
2024/03/24 03:59:43;;;;;;;4.73;2.50;;;;;;;13.92;87.31;100428.50;2098180;28;20405;-70
2024/03/24 04:00:44;;;;;;;4.70;2.50;;;;;;;13.04;85.71;100297.63;2098112;28;20601;-70
2024/03/24 04:01:44;;;;;;;4.60;2.90;;;;;;;13.69;85.66;100401.94;2098129;28;20186;-70
2024/03/24 04:02:49;;;;;;;3.63;2.37;;;;;;;13.80;85.29;100413.47;2098216;28;20281;-70
2024/03/24 04:03:49;;;;;;;3.07;2.10;;;;;;;13.85;85.29;100431.56;2097373;28;20190;-70
2024/03/24 04:04:50;;;;;;;3.27;2.37;;;;;;;13.79;85.88;100430.63;2097591;28;20511;-70
2024/03/24 04:05:50;;;;;;;3.47;2.40;;;;;;;13.77;86.38;100427.50;2098051;28;20181;-70
2024/03/24 04:06:51;;;;;;;4.93;2.70;;;;;;;13.34;86.01;100369.97;2098168;28;20235;-70
2024/03/24 04:07:52;;;;;;;3.63;2.40;;;;;;;13.78;86.49;100432.63;2098107;28;20183;-70
2024/03/24 04:08:52;;;;;;;4.77;2.30;;;;;;;12.91;86.45;100330.28;2097984;28;20181;-70
2024/03/24 04:09:53;;;;;;;4.13;2.60;;;;;;;13.51;87.06;100417.81;2098080;28;20178;-70
2024/03/24 04:10:53;;;;;;;3.80;2.50;;;;;;;13.02;86.84;100339.03;2098258;28;20177;-70
2024/03/24 04:11:54;;;;;;;3.80;2.50;;;;;;;12.99;86.80;100335.16;2098069;28;20178;-70
2024/03/24 04:12:55;;;;;;;4.27;2.67;;;;;;;13.11;86.94;100358.56;2098036;28;20508;-70
2024/03/24 04:13:56;;;;;;;4.37;2.70;;;;;;;13.03;87.35;100349.72;2098184;28;20170;-70
2024/03/24 04:15:03;;;;;;;4.27;2.43;;;;;;;13.44;87.41;100415.31;2098140;28;20172;-70
2024/03/24 04:16:07;;;;;;;4.23;2.70;;;;;;;13.32;87.41;100411.38;2098050;28;20202;-70
2024/03/24 04:17:07;;;;;;;5.83;2.70;;;;;;;13.08;87.42;100368.59;2097913;28;20549;-70
2024/03/24 04:18:07;;;;;;;3.27;2.47;;;;;;;13.63;87.20;100445.56;2098210;28;20421;-70
2024/03/24 04:19:08;;;;;;;4.87;2.37;;;;;;;13.60;87.37;100446.50;2098028;28;20185;-70
2024/03/24 04:20:11;;;;;;;5.70;2.53;;;;;;;13.60;87.36;100443.69;2098068;28;20183;-70
2024/03/24 04:21:11;;;;;;;3.07;2.37;;;;;;;13.61;87.13;100442.47;2098080;28;20913;-70
2024/03/24 04:22:12;;;;;;;3.93;2.50;;;;;;;13.42;87.46;100423.34;2098027;28;20866;-70
2024/03/24 04:23:13;;;;;;;3.67;2.67;;;;;;;13.33;87.63;100412.16;2097997;28;20253;-70
2024/03/24 04:24:14;;;;;;;4.07;2.60;;;;;;;13.16;88.59;100375.44;2097997;28;20268;-70
2024/03/24 04:25:15;;;;;;;3.90;2.13;;;;;;;13.56;88.68;100445.84;2098018;28;20178;-71
2024/03/24 04:26:15;;;;;;;3.77;2.40;;;;;;;13.22;89.02;100387.50;2098209;28;20178;-70
2024/03/24 04:27:16;;;;;;;3.90;2.53;;;;;;;13.59;89.58;100447.72;2097997;28;20417;-70
2024/03/24 04:28:17;;;;;;;3.47;2.27;;;;;;;13.58;89.80;100442.59;2097278;28;20283;-70
2024/03/24 04:29:17;;;;;;;3.73;2.10;;;;;;;13.56;90.17;100440.28;2097459;28;20487;-70
2024/03/24 04:30:18;;;;;;;3.67;2.70;;;;;;;13.35;90.07;100409.69;2097920;28;20183;-71
2024/03/24 04:31:18;;;;;;;6.23;2.60;;;;;;;13.59;90.17;100449.72;2098090;28;20178;-70
2024/03/24 04:32:19;;;;;;;5.67;2.70;;;;;;;13.13;89.25;100383.91;2097935;28;20183;-70
2024/03/24 04:33:19;;;;;;;4.37;2.63;;;;;;;13.44;88.94;100426.44;2097805;28;20287;-71
2024/03/24 04:34:20;;;;;;;4.50;2.47;;;;;;;13.59;88.79;100456.06;2098370;28;20582;-70
2024/03/24 04:35:20;;;;;;;3.23;2.40;;;;;;;13.39;87.34;100427.03;2091818;28;20195;-70
2024/03/24 04:36:21;;;;;;;3.43;2.50;;;;;;;13.54;88.49;100451.09;2091422;28;20261;-71
2024/03/24 04:37:21;;;;;;;4.43;2.40;;;;;;;13.15;86.76;100400.91;2090971;28;20214;-69
2024/03/24 04:38:22;;;;;;;4.73;2.20;;;;;;;13.62;85.26;100455.16;2091091;28;20264;-70
2024/03/24 04:39:24;;;;;;;3.03;2.07;;;;;;;13.61;85.51;100466.72;2090559;28;20569;-70
2024/03/24 04:40:24;;;;;;;3.70;2.20;;;;;;;13.11;85.87;100380.81;2090752;28;20179;-70
2024/03/24 04:41:25;;;;;;;3.53;2.30;;;;;;;13.13;85.09;100392.25;2091308;28;20452;-70